Time;durP1;ratioP1;P1;durP2;ratioP2;P2;SDS_P1;SDS_P2;PMS_P1;PMS_P2;Temp;Humidity;BMP_temperature;BMP_pressure;BME280_temperature;BME280_humidity;BME280_pressure;Samples;Min_cycle;Max_cycle;Signal;HPM_P1;HPM_P2
2022/11/30 04:01:07;;;;;;;1.50;1.50;;;8.60;88.10;;;;;;5869361;23;20501;-73
2022/11/30 04:03:34;;;;;;;1.60;1.60;;;8.60;87.80;;;;;;4977049;28;20434;-74
2022/11/30 04:06:01;;;;;;;1.67;1.67;;;8.70;88.00;;;;;;4977051;28;20799;-74
2022/11/30 04:08:29;;;;;;;1.50;1.50;;;8.60;87.90;;;;;;4976920;28;20454;-73
2022/11/30 04:10:58;;;;;;;1.70;1.70;;;8.60;88.40;;;;;;4976963;28;20471;-72
2022/11/30 04:13:25;;;;;;;1.47;1.47;;;8.70;88.10;;;;;;4976964;28;20497;-72
2022/11/30 04:15:53;;;;;;;1.40;1.40;;;8.60;88.20;;;;;;4978141;28;20965;-72
2022/11/30 04:18:23;;;;;;;1.30;1.30;;;8.70;88.00;;;;;;4976889;28;20457;-72
2022/11/30 04:20:50;;;;;;;1.40;1.40;;;8.60;88.30;;;;;;4976652;28;20494;-72
2022/11/30 04:23:18;;;;;;;1.43;1.43;;;8.70;88.00;;;;;;4976813;28;20481;-72
2022/11/30 04:25:44;;;;;;;1.33;1.33;;;8.70;87.80;;;;;;4976691;28;20834;-71
2022/11/30 04:28:11;;;;;;;1.33;1.33;;;8.70;88.00;;;;;;4976244;28;20950;-71
2022/11/30 04:30:38;;;;;;;1.30;1.30;;;8.70;87.90;;;;;;4976488;28;20449;-72
2022/11/30 04:33:05;;;;;;;1.17;1.17;;;8.70;87.90;;;;;;4976535;28;20454;-71
2022/11/30 04:35:34;;;;;;;1.30;1.30;;;8.70;87.60;;;;;;4975561;28;20462;-71
2022/11/30 04:38:01;;;;;;;1.20;1.20;;;8.70;87.80;;;;;;4976320;28;20458;-71
2022/11/30 04:40:27;;;;;;;1.60;1.60;;;8.70;87.90;;;;;;4975991;28;20450;-72
2022/11/30 04:42:54;;;;;;;1.17;1.17;;;8.70;87.80;;;;;;4976181;28;20454;-71
2022/11/30 04:45:21;;;;;;;1.00;1.00;;;8.70;87.80;;;;;;4975933;28;20458;-72
2022/11/30 04:47:47;;;;;;;1.03;1.03;;;8.70;87.90;;;;;;4975874;28;20457;-72
2022/11/30 04:50:14;;;;;;;1.17;1.17;;;8.70;87.50;;;;;;4976032;28;20830;-71
2022/11/30 04:52:42;;;;;;;1.40;1.30;;;8.70;87.60;;;;;;4975764;28;20466;-72
2022/11/30 04:55:09;;;;;;;1.20;1.20;;;8.70;87.60;;;;;;4975744;28;20461;-72
2022/11/30 04:57:36;;;;;;;1.10;1.10;;;8.60;88.00;;;;;;4975695;28;20500;-71
2022/11/30 05:00:03;;;;;;;1.20;1.20;;;8.60;88.10;;;;;;4975583;28;20811;-71
2022/11/30 05:02:30;;;;;;;1.33;1.33;;;8.60;88.10;;;;;;4975424;28;20498;-72
2022/11/30 05:04:57;;;;;;;1.10;1.10;;;8.60;87.90;;;;;;4975501;28;20461;-72
2022/11/30 05:07:23;;;;;;;1.30;1.30;;;8.60;87.80;;;;;;4975560;28;20457;-71
2022/11/30 05:09:52;;;;;;;1.17;1.17;;;8.60;88.00;;;;;;4975301;28;20802;-71
2022/11/30 05:12:19;;;;;;;1.40;1.40;;;8.60;88.20;;;;;;4975491;28;20561;-70
2022/11/30 05:14:46;;;;;;;1.13;1.13;;;8.60;88.10;;;;;;4975252;28;20454;-71
2022/11/30 05:17:12;;;;;;;1.40;1.40;;;8.60;88.20;;;;;;4975281;28;20455;-71
2022/11/30 05:19:39;;;;;;;1.27;1.27;;;8.60;88.00;;;;;;4975456;28;20819;-71
2022/11/30 05:22:06;;;;;;;1.37;1.37;;;8.60;87.90;;;;;;4975027;28;20486;-72
2022/11/30 05:24:33;;;;;;;1.10;1.10;;;8.60;87.90;;;;;;4975672;28;20849;-71
2022/11/30 05:27:01;;;;;;;1.10;1.10;;;8.70;87.90;;;;;;4975016;28;20457;-70
2022/11/30 05:29:27;;;;;;;1.13;1.13;;;8.70;87.80;;;;;;4975266;28;20473;-70
2022/11/30 05:31:54;;;;;;;1.40;1.40;;;8.70;87.70;;;;;;4974937;28;20467;-71
2022/11/30 05:34:21;;;;;;;1.20;1.20;;;8.50;88.20;;;;;;4974702;28;20946;-71
2022/11/30 05:36:47;;;;;;;1.03;1.03;;;8.60;88.00;;;;;;4974959;28;20450;-71
2022/11/30 05:39:14;;;;;;;1.23;1.23;;;8.70;87.80;;;;;;4974965;28;20451;-71
2022/11/30 05:41:41;;;;;;;1.33;1.33;;;8.60;87.90;;;;;;4974997;28;20510;-71
2022/11/30 05:44:09;;;;;;;1.20;1.20;;;8.50;88.00;;;;;;4974871;28;20458;-70
2022/11/30 05:46:37;;;;;;;1.40;1.40;;;8.60;87.90;;;;;;4974900;28;20485;-71
2022/11/30 05:49:04;;;;;;;1.30;1.30;;;8.60;87.90;;;;;;4974556;28;20968;-70
2022/11/30 05:51:30;;;;;;;1.20;1.20;;;8.60;88.00;;;;;;4975107;28;20466;-71
2022/11/30 05:53:58;;;;;;;1.20;1.20;;;8.60;88.00;;;;;;4975051;28;20508;-71
2022/11/30 05:56:25;;;;;;;1.30;1.30;;;8.50;88.20;;;;;;4976265;28;20461;-72
2022/11/30 05:58:52;;;;;;;1.40;1.40;;;8.50;88.20;;;;;;4975024;28;20458;-73
2022/11/30 06:01:22;;;;;;;1.50;1.50;;;8.60;88.30;;;;;;4974707;28;20492;-72
2022/11/30 06:03:49;;;;;;;1.50;1.50;;;8.50;88.00;;;;;;4974873;28;20957;-71
2022/11/30 06:06:15;;;;;;;1.30;1.30;;;8.50;88.50;;;;;;4974860;28;20454;-72
2022/11/30 06:08:43;;;;;;;1.40;1.40;;;8.50;88.40;;;;;;4974785;28;20458;-72
2022/11/30 06:11:10;;;;;;;1.20;1.20;;;8.50;88.40;;;;;;4975037;28;20470;-72
2022/11/30 06:13:37;;;;;;;1.33;1.33;;;8.50;88.50;;;;;;4975014;28;20450;-72
2022/11/30 06:16:05;;;;;;;1.67;1.67;;;8.50;88.40;;;;;;4974946;28;20817;-72
2022/11/30 06:18:33;;;;;;;1.40;1.40;;;8.60;88.20;;;;;;4975282;28;20450;-72
2022/11/30 06:21:01;;;;;;;1.40;1.40;;;8.60;88.10;;;;;;4975911;28;20470;-72
2022/11/30 06:23:28;;;;;;;1.70;1.70;;;8.60;88.10;;;;;;4975535;28;20508;-72
2022/11/30 06:25:54;;;;;;;1.30;1.30;;;8.40;88.20;;;;;;4975395;28;20446;-72
2022/11/30 06:28:21;;;;;;;1.20;1.20;;;8.50;88.70;;;;;;4974856;28;20965;-72
2022/11/30 06:30:48;;;;;;;1.40;1.40;;;8.50;88.30;;;;;;4975278;28;20470;-72
2022/11/30 06:33:15;;;;;;;1.40;1.40;;;8.50;88.40;;;;;;4974888;28;20450;-72
2022/11/30 06:35:46;;;;;;;1.20;1.20;;;8.40;88.70;;;;;;4975275;28;20465;-71
2022/11/30 06:38:13;;;;;;;1.80;1.80;;;8.30;88.70;;;;;;4974842;28;20862;-72
2022/11/30 06:40:40;;;;;;;1.43;1.43;;;8.30;89.20;;;;;;4974761;28;20453;-73
2022/11/30 06:43:06;;;;;;;1.40;1.40;;;8.20;89.30;;;;;;4974488;28;20489;-71
2022/11/30 06:45:33;;;;;;;1.73;1.73;;;8.30;89.10;;;;;;4974895;28;20450;-72
2022/11/30 06:48:00;;;;;;;1.23;1.23;;;8.40;89.00;;;;;;4974488;28;20461;-72
2022/11/30 06:50:27;;;;;;;1.50;1.50;;;8.40;88.60;;;;;;4974815;28;20450;-72
2022/11/30 06:52:55;;;;;;;1.50;1.50;;;8.40;88.80;;;;;;4974368;28;20455;-72
2022/11/30 06:55:22;;;;;;;1.40;1.40;;;8.40;88.80;;;;;;4974307;28;20450;-71
2022/11/30 06:57:49;;;;;;;1.30;1.30;;;8.50;88.50;;;;;;4974379;28;20458;-71
2022/11/30 07:00:16;;;;;;;1.30;1.30;;;8.50;88.50;;;;;;4978466;28;20470;-72
2022/11/30 07:02:43;;;;;;;1.60;1.60;;;8.60;88.30;;;;;;4978013;28;20490;-73
2022/11/30 07:05:10;;;;;;;1.77;1.77;;;8.60;88.20;;;;;;4977870;28;20973;-72
2022/11/30 07:07:37;;;;;;;1.50;1.50;;;8.70;88.20;;;;;;4978403;28;20458;-73
2022/11/30 07:10:07;;;;;;;1.40;1.40;;;8.70;88.00;;;;;;4978288;28;20457;-72
2022/11/30 07:12:35;;;;;;;1.63;1.63;;;8.70;88.00;;;;;;4978838;28;20470;-72
2022/11/30 07:15:01;;;;;;;1.43;1.43;;;8.70;88.10;;;;;;4977936;28;20479;-72
2022/11/30 07:17:28;;;;;;;1.63;1.63;;;8.70;88.00;;;;;;4979282;28;20457;-75
2022/11/30 07:19:55;;;;;;;1.50;1.50;;;8.80;87.90;;;;;;4977628;28;20965;-72
2022/11/30 07:22:21;;;;;;;1.30;1.30;;;8.70;87.90;;;;;;4977467;28;20485;-72
2022/11/30 07:27:34;;;;;;;1.90;1.90;;;8.70;87.80;;;;;;4977713;28;20410;-71
2022/11/30 07:30:00;;;;;;;1.70;1.70;;;8.70;87.90;;;;;;4977516;28;20469;-72
2022/11/30 07:32:27;;;;;;;1.80;1.80;;;8.70;88.00;;;;;;4977098;28;20466;-70
2022/11/30 07:34:54;;;;;;;1.37;1.37;;;8.50;88.50;;;;;;4976865;28;20454;-71
2022/11/30 07:37:20;;;;;;;1.50;1.50;;;8.40;89.00;;;;;;4977209;28;20454;-71
2022/11/30 07:39:47;;;;;;;1.43;1.43;;;8.30;89.10;;;;;;4977101;28;20447;-70
2022/11/30 07:42:15;;;;;;;1.90;1.90;;;8.30;89.20;;;;;;4979326;28;20993;-72
2022/11/30 07:44:43;;;;;;;2.00;2.00;;;8.10;88.80;;;;;;4977524;28;20450;-72
2022/11/30 07:47:10;;;;;;;1.40;1.40;;;8.00;89.70;;;;;;4977950;28;20459;-71
2022/11/30 07:49:38;;;;;;;1.50;1.50;;;8.00;89.40;;;;;;4977577;28;20461;-71
2022/11/30 07:52:05;;;;;;;1.50;1.50;;;7.80;89.70;;;;;;4977216;28;20478;-71
2022/11/30 07:54:32;;;;;;;1.83;1.83;;;7.70;89.60;;;;;;4977304;28;20477;-70
2022/11/30 07:56:58;;;;;;;2.00;2.00;;;7.70;90.50;;;;;;4977305;28;20534;-71
2022/11/30 07:59:25;;;;;;;1.53;1.53;;;7.40;90.20;;;;;;4976985;28;20446;-72
2022/11/30 08:01:53;;;;;;;1.77;1.77;;;7.20;91.40;;;;;;4976887;28;20490;-71
2022/11/30 08:04:20;;;;;;;2.10;2.10;;;7.10;92.30;;;;;;4977705;28;20846;-70
2022/11/30 08:06:47;;;;;;;2.03;2.03;;;7.00;92.20;;;;;;4976810;28;20454;-70
2022/11/30 08:09:13;;;;;;;2.10;2.10;;;7.10;92.90;;;;;;4976654;28;20815;-71
2022/11/30 08:11:40;;;;;;;2.00;2.00;;;7.10;92.50;;;;;;4976185;28;20478;-70
2022/11/30 08:14:07;;;;;;;2.10;2.10;;;7.10;91.30;;;;;;4977049;28;20454;-71
2022/11/30 08:16:37;;;;;;;1.90;1.90;;;7.10;91.70;;;;;;4976977;28;20454;-70
2022/11/30 08:19:05;;;;;;;2.30;2.30;;;7.10;91.10;;;;;;4976492;28;20482;-71
2022/11/30 08:21:32;;;;;;;2.33;2.33;;;6.90;90.60;;;;;;4976163;28;20473;-69
2022/11/30 08:23:58;;;;;;;2.23;2.13;;;6.80;91.50;;;;;;4976791;28;20447;-72
2022/11/30 08:26:27;;;;;;;2.70;2.60;;;6.80;91.70;;;;;;4977019;28;20450;-71
2022/11/30 08:28:55;;;;;;;2.03;1.93;;;6.90;91.90;;;;;;4976277;28;20454;-70
2022/11/30 08:31:23;;;;;;;2.40;2.30;;;6.90;91.80;;;;;;4976241;28;20478;-71
2022/11/30 08:33:54;;;;;;;2.60;2.50;;;6.90;91.40;;;;;;4976170;28;20442;-72
2022/11/30 08:36:23;;;;;;;2.20;2.17;;;7.10;91.90;;;;;;4975843;28;21017;-72
2022/11/30 08:38:50;;;;;;;2.17;2.17;;;7.20;90.90;;;;;;4976202;28;20450;-70
2022/11/30 08:41:18;;;;;;;2.10;2.10;;;7.20;90.90;;;;;;4976101;28;20466;-71
2022/11/30 08:43:45;;;;;;;2.80;2.70;;;7.30;90.60;;;;;;4976051;28;20486;-71
2022/11/30 08:46:15;;;;;;;1.90;1.90;;;7.30;90.60;;;;;;4976058;28;20454;-71
2022/11/30 08:48:42;;;;;;;2.17;2.17;;;7.40;90.00;;;;;;4975883;28;20454;-70
2022/11/30 08:51:11;;;;;;;2.47;2.47;;;7.70;90.30;;;;;;4976056;28;20474;-72
2022/11/30 08:53:39;;;;;;;2.17;2.17;;;7.70;89.50;;;;;;4975847;28;20442;-71
2022/11/30 08:56:08;;;;;;;1.80;1.80;;;7.60;89.10;;;;;;4976344;28;20458;-71
2022/11/30 08:58:37;;;;;;;1.90;1.90;;;7.60;89.60;;;;;;4975940;28;20495;-71
2022/11/30 09:01:08;;;;;;;2.20;2.20;;;7.80;89.50;;;;;;4976610;28;20478;-72
2022/11/30 09:03:34;;;;;;;2.10;2.10;;;7.80;88.80;;;;;;4976218;28;20486;-70
2022/11/30 09:06:05;;;;;;;2.00;2.00;;;8.00;88.50;;;;;;4975984;28;20957;-72
2022/11/30 09:08:33;;;;;;;1.80;1.80;;;8.20;87.90;;;;;;4976095;28;20493;-69
2022/11/30 09:11:07;;;;;;;1.80;1.80;;;8.40;87.70;;;;;;4975988;28;20489;-71
2022/11/30 09:13:34;;;;;;;2.27;2.27;;;8.40;87.20;;;;;;4976749;28;20442;-70
2022/11/30 09:16:01;;;;;;;1.93;1.93;;;8.50;86.80;;;;;;4975936;28;20454;-71
2022/11/30 09:18:27;;;;;;;1.57;1.57;;;8.70;86.70;;;;;;4975723;28;20446;-72
2022/11/30 09:20:59;;;;;;;1.63;1.63;;;8.80;86.60;;;;;;4975177;28;20470;-72
2022/11/30 09:23:26;;;;;;;1.53;1.53;;;8.90;85.70;;;;;;4975564;28;20470;-72
2022/11/30 09:25:56;;;;;;;1.40;1.30;;;9.00;85.30;;;;;;4975831;28;20462;-71
2022/11/30 09:28:24;;;;;;;1.70;1.70;;;9.10;85.20;;;;;;4975438;28;20457;-71
2022/11/30 09:30:51;;;;;;;1.40;1.40;;;9.10;84.50;;;;;;4975413;28;20478;-72
2022/11/30 09:33:18;;;;;;;1.97;1.87;;;9.10;84.00;;;;;;4975555;28;20453;-71
2022/11/30 09:35:44;;;;;;;1.77;1.77;;;9.20;84.30;;;;;;4975875;28;20450;-71
2022/11/30 09:38:11;;;;;;;1.40;1.40;;;9.10;84.10;;;;;;4975246;28;20445;-71
2022/11/30 09:40:40;;;;;;;1.50;1.50;;;9.10;84.10;;;;;;4975225;28;20450;-71
2022/11/30 09:43:15;;;;;;;1.43;1.43;;;9.10;84.70;;;;;;4975046;28;20481;-71
2022/11/30 09:45:50;;;;;;;1.80;1.80;;;9.00;84.70;;;;;;4975379;28;20434;-71
2022/11/30 09:48:24;;;;;;;1.13;1.13;;;8.90;85.10;;;;;;4975397;28;20439;-72
2022/11/30 09:50:51;;;;;;;1.90;1.90;;;8.70;85.70;;;;;;4975086;28;20485;-74
2022/11/30 09:53:26;;;;;;;1.70;1.70;;;8.60;86.20;;;;;;4975047;28;20482;-72
2022/11/30 09:55:54;;;;;;;1.87;1.87;;;8.40;86.90;;;;;;4975120;28;20906;-72
2022/11/30 09:58:29;;;;;;;1.70;1.70;;;8.40;87.30;;;;;;4975118;28;20450;-74
2022/11/30 10:00:57;;;;;;;1.73;1.63;;;8.50;87.40;;;;;;4974360;28;21068;-73
2022/11/30 10:03:24;;;;;;;1.60;1.60;;;8.60;87.40;;;;;;4975289;28;20477;-73
2022/11/30 10:05:59;;;;;;;2.20;2.10;;;8.80;87.20;;;;;;4975237;28;20458;-72
2022/11/30 10:08:39;;;;;;;1.40;1.40;;;8.80;86.50;;;;;;4975447;28;20470;-73
2022/11/30 10:11:31;;;;;;;1.70;1.70;;;8.70;86.80;;;;;;4975533;28;20504;-73
2022/11/30 10:14:09;;;;;;;1.80;1.80;;;8.90;86.60;;;;;;4975275;28;20451;-73
2022/11/30 10:16:45;;;;;;;1.90;1.80;;;8.80;86.00;;;;;;4976475;28;20446;-77
2022/11/30 10:19:27;;;;;;;2.00;2.00;;;8.50;86.70;;;;;;4975125;28;20442;-78
2022/11/30 10:22:04;;;;;;;1.77;1.77;;;8.20;87.50;;;;;;4974936;28;20474;-78
2022/11/30 10:24:51;;;;;;;2.30;2.30;;;8.00;88.50;;;;;;4974917;28;20430;-77
2022/11/30 10:27:30;;;;;;;1.70;1.70;;;7.90;88.80;;;;;;4975795;28;20544;-78
2022/11/30 10:30:00;;;;;;;2.23;2.23;;;7.70;89.00;;;;;;4974793;28;20437;-78
2022/11/30 10:32:35;;;;;;;2.30;2.20;;;7.60;90.10;;;;;;4975018;28;20466;-79
2022/11/30 10:35:13;;;;;;;2.00;2.00;;;7.60;90.60;;;;;;4978489;28;20449;-78
2022/11/30 10:37:41;;;;;;;1.80;1.80;;;7.50;90.60;;;;;;4978938;28;20452;-79
2022/11/30 10:40:14;;;;;;;2.17;2.17;;;7.60;90.40;;;;;;4978883;28;20450;-79
2022/11/30 10:42:45;;;;;;;1.77;1.77;;;7.50;90.10;;;;;;4978379;28;20997;-78
2022/11/30 10:45:16;;;;;;;1.90;1.90;;;7.70;90.60;;;;;;4978260;28;20441;-78
2022/11/30 10:47:50;;;;;;;1.80;1.70;;;7.70;89.40;;;;;;4979704;28;20441;-79
2022/11/30 10:50:18;;;;;;;2.00;1.90;;;7.80;89.30;;;;;;4981920;28;20449;-79
2022/11/30 10:52:47;;;;;;;1.57;1.57;;;7.60;89.50;;;;;;4982669;28;20470;-79
2022/11/30 10:55:19;;;;;;;1.77;1.77;;;7.60;89.90;;;;;;4981477;28;20450;-78
2022/11/30 10:57:48;;;;;;;1.43;1.43;;;7.80;89.40;;;;;;4978840;28;20433;-78
2022/11/30 11:00:17;;;;;;;1.77;1.77;;;7.90;88.60;;;;;;4978093;28;20454;-78
2022/11/30 11:02:47;;;;;;;1.37;1.37;;;7.90;87.80;;;;;;4978698;28;20490;-79
2022/11/30 11:05:20;;;;;;;1.30;1.30;;;7.90;87.40;;;;;;4979095;28;20988;-79
2022/11/30 11:07:51;;;;;;;1.30;1.30;;;7.90;86.40;;;;;;4978992;28;20470;-78
2022/11/30 11:10:20;;;;;;;1.57;1.50;;;7.90;86.60;;;;;;4978416;28;20434;-78
2022/11/30 11:12:49;;;;;;;1.77;1.70;;;8.00;86.70;;;;;;4978113;28;20470;-78
2022/11/30 11:15:19;;;;;;;1.20;1.20;;;7.90;86.50;;;;;;4978106;28;20481;-80
2022/11/30 11:17:48;;;;;;;1.53;1.53;;;7.80;86.00;;;;;;4978547;28;20453;-79
2022/11/30 11:20:31;;;;;;;1.37;1.37;;;7.80;86.50;;;;;;4978642;28;20477;-80
2022/11/30 11:22:58;;;;;;;1.30;1.30;;;7.90;86.00;;;;;;4976888;28;20486;-78
2022/11/30 11:25:31;;;;;;;1.50;1.50;;;8.00;86.50;;;;;;4978631;28;20836;-79
2022/11/30 11:28:04;;;;;;;1.47;1.47;;;7.90;85.90;;;;;;4978403;28;20442;-78
2022/11/30 11:30:32;;;;;;;1.40;1.40;;;8.00;85.90;;;;;;4977586;28;20454;-78
2022/11/30 11:33:03;;;;;;;1.53;1.53;;;8.00;85.70;;;;;;4977839;28;20457;-78
2022/11/30 11:35:36;;;;;;;1.30;1.30;;;8.10;85.20;;;;;;4977749;28;20817;-79
2022/11/30 11:38:04;;;;;;;1.57;1.57;;;8.10;85.10;;;;;;4977936;28;20430;-78
2022/11/30 11:40:31;;;;;;;1.70;1.70;;;8.30;85.30;;;;;;4978773;28;20450;-79
2022/11/30 11:42:59;;;;;;;1.30;1.30;;;8.50;85.10;;;;;;4979678;28;20554;-79
2022/11/30 11:45:29;;;;;;;1.30;1.30;;;8.60;84.90;;;;;;4978712;28;20485;-78
2022/11/30 11:48:00;;;;;;;1.50;1.50;;;8.50;83.90;;;;;;4978605;28;20454;-79
2022/11/30 11:50:30;;;;;;;1.30;1.30;;;8.50;84.40;;;;;;4978247;28;20891;-79
2022/11/30 11:53:14;;;;;;;1.30;1.30;;;8.50;84.30;;;;;;4977467;28;20446;-79
2022/11/30 11:55:42;;;;;;;1.47;1.47;;;8.40;83.90;;;;;;4977513;28;20434;-78
2022/11/30 11:58:16;;;;;;;1.50;1.50;;;8.20;84.60;;;;;;4977157;28;20461;-78
2022/11/30 12:00:44;;;;;;;1.30;1.30;;;8.20;85.60;;;;;;4978538;28;20446;-79
2022/11/30 12:03:22;;;;;;;1.40;1.40;;;8.10;85.30;;;;;;4978337;28;20845;-77
2022/11/30 12:05:53;;;;;;;1.73;1.73;;;8.30;85.50;;;;;;4977943;28;20487;-78
2022/11/30 12:08:30;;;;;;;1.50;1.50;;;8.50;85.30;;;;;;4977563;28;20443;-79
2022/11/30 12:11:02;;;;;;;1.73;1.73;;;8.40;85.30;;;;;;4977858;28;20474;-79
2022/11/30 12:13:32;;;;;;;1.50;1.50;;;8.50;85.00;;;;;;4977470;28;20426;-79
2022/11/30 12:16:13;;;;;;;1.33;1.33;;;8.60;84.60;;;;;;4978349;28;20473;-79
2022/11/30 12:18:49;;;;;;;1.13;1.13;;;8.70;84.60;;;;;;4978905;28;20431;-79
2022/11/30 12:21:25;;;;;;;1.37;1.37;;;8.80;83.90;;;;;;4977721;28;20497;-78
2022/11/30 12:24:26;;;;;;;1.23;1.23;;;8.90;83.70;;;;;;4979983;28;20478;-79
2022/11/30 12:26:58;;;;;;;1.33;1.33;;;8.80;83.50;;;;;;4974683;28;20465;-78
2022/11/30 12:29:34;;;;;;;1.30;1.30;;;8.80;83.40;;;;;;4977691;28;20430;-79
2022/11/30 12:32:13;;;;;;;1.07;1.07;;;8.80;83.50;;;;;;4979403;28;20465;-79
2022/11/30 12:34:56;;;;;;;1.23;1.23;;;8.90;83.30;;;;;;4979576;28;20422;-80
2022/11/30 12:37:33;;;;;;;1.10;1.10;;;9.10;82.90;;;;;;4979205;28;20430;-80
2022/11/30 12:40:07;;;;;;;0.90;0.90;;;9.10;82.30;;;;;;4979931;28;20818;-79
2022/11/30 12:42:41;;;;;;;1.10;1.10;;;9.00;82.70;;;;;;4978597;28;20477;-79
2022/11/30 12:45:16;;;;;;;1.20;1.20;;;9.00;82.80;;;;;;4977381;28;20429;-79
2022/11/30 12:47:50;;;;;;;1.13;1.13;;;9.00;82.50;;;;;;4977699;28;20434;-79
2022/11/30 12:50:42;;;;;;;1.40;1.40;;;9.10;82.50;;;;;;4978500;28;20429;-79
2022/11/30 12:53:20;;;;;;;1.00;1.00;;;9.00;82.60;;;;;;4978107;28;20442;-79
2022/11/30 12:56:01;;;;;;;1.60;1.50;;;9.00;82.70;;;;;;4976555;28;20908;-79
2022/11/30 12:58:40;;;;;;;1.10;1.10;;;8.90;82.80;;;;;;4976241;28;20438;-79
2022/11/30 13:01:20;;;;;;;1.30;1.30;;;8.80;83.10;;;;;;4977209;28;20482;-80
2022/11/30 13:03:54;;;;;;;1.40;1.40;;;8.70;83.50;;;;;;4978534;28;20564;-79
2022/11/30 13:06:27;;;;;;;1.10;1.10;;;8.70;83.80;;;;;;4977035;28;20441;-79
2022/11/30 13:09:01;;;;;;;0.83;0.83;;;8.60;84.00;;;;;;4976215;28;20446;-80
2022/11/30 13:11:33;;;;;;;0.90;0.90;;;8.40;84.60;;;;;;4977394;28;20487;-79
2022/11/30 13:14:00;;;;;;;1.10;1.10;;;8.40;84.80;;;;;;4976583;28;20430;-79
2022/11/30 13:16:30;;;;;;;0.90;0.90;;;8.30;84.60;;;;;;4977065;28;20446;-80
2022/11/30 13:19:04;;;;;;;1.00;1.00;;;8.30;84.80;;;;;;4977151;28;20450;-80
2022/11/30 13:21:35;;;;;;;0.90;0.90;;;8.40;85.10;;;;;;4977582;28;20474;-78
2022/11/30 13:24:08;;;;;;;1.20;1.20;;;8.50;85.00;;;;;;4977270;28;20999;-78
2022/11/30 13:26:40;;;;;;;1.00;1.00;;;8.30;84.20;;;;;;4975964;28;20887;-78
2022/11/30 13:29:51;;;;;;;1.00;1.00;;;8.20;85.00;;;;;;4975828;28;20910;-79
2022/11/30 13:32:19;;;;;;;0.90;0.90;;;8.30;84.80;;;;;;4940776;28;20993;-79
2022/11/30 13:34:46;;;;;;;1.47;1.47;;;8.30;85.00;;;;;;4978112;28;20423;-79
2022/11/30 13:37:19;;;;;;;1.20;1.20;;;8.10;84.90;;;;;;4976177;28;20478;-78
2022/11/30 13:39:49;;;;;;;1.20;1.20;;;8.10;85.30;;;;;;4975535;28;20430;-79
2022/11/30 13:42:35;;;;;;;1.00;1.00;;;8.10;85.10;;;;;;4976139;28;20473;-79
2022/11/30 13:45:33;;;;;;;1.07;1.07;;;8.20;85.10;;;;;;4976463;28;20482;-79
2022/11/30 13:48:17;;;;;;;0.80;0.80;;;8.30;84.90;;;;;;4936151;29;20523;-79
2022/11/30 13:50:48;;;;;;;1.27;1.27;;;8.40;84.50;;;;;;4973179;28;20842;-78
2022/11/30 13:53:27;;;;;;;1.30;1.30;;;8.40;84.30;;;;;;4977890;28;20946;-78
2022/11/30 13:56:17;;;;;;;1.50;1.50;;;8.30;84.50;;;;;;4977570;28;20470;-79
2022/11/30 13:59:40;;;;;;;1.20;1.20;;;8.30;84.90;;;;;;4960158;28;20470;-79
2022/11/30 14:02:56;;;;;;;1.40;1.40;;;8.40;85.00;;;;;;4975423;28;20482;-78
2022/11/30 14:05:34;;;;;;;1.30;1.30;;;8.20;85.00;;;;;;4975134;28;20470;-78
2022/11/30 14:08:36;;;;;;;1.40;1.40;;;8.10;85.90;;;;;;4976842;28;20453;-77
2022/11/30 14:11:42;;;;;;;2.30;1.30;;;8.30;85.70;;;;;;4976824;28;20554;-77
2022/11/30 14:14:46;;;;;;;1.27;1.27;;;8.40;85.40;;;;;;4979342;28;20796;-79
2022/11/30 14:17:26;;;;;;;1.30;1.30;;;8.50;85.00;;;;;;4979026;28;20889;-78
2022/11/30 14:19:57;;;;;;;1.30;1.30;;;8.50;84.70;;;;;;4979094;28;20441;-78
2022/11/30 14:22:26;;;;;;;1.43;1.43;;;8.50;84.60;;;;;;4978574;28;20477;-77
2022/11/30 14:24:53;;;;;;;1.37;1.37;;;8.50;84.50;;;;;;4978553;28;20489;-77
2022/11/30 14:27:23;;;;;;;1.20;1.20;;;8.40;84.60;;;;;;4978968;28;20450;-79
2022/11/30 14:29:54;;;;;;;1.30;1.30;;;8.30;84.80;;;;;;4979472;28;20450;-76
2022/11/30 14:32:29;;;;;;;1.57;1.57;;;8.40;85.10;;;;;;4979442;28;21013;-77
2022/11/30 14:35:06;;;;;;;1.57;1.57;;;8.40;84.90;;;;;;4978864;28;20426;-78
2022/11/30 14:37:40;;;;;;;1.33;1.33;;;8.40;85.00;;;;;;4978512;28;20438;-77
2022/11/30 14:40:08;;;;;;;1.70;1.70;;;8.30;85.60;;;;;;4978435;28;20439;-78
2022/11/30 14:42:36;;;;;;;1.60;1.50;;;8.30;85.50;;;;;;4978342;28;20479;-77
2022/11/30 14:45:03;;;;;;;1.50;1.50;;;8.40;85.50;;;;;;4978034;28;20981;-78
2022/11/30 14:47:32;;;;;;;1.80;1.80;;;8.50;85.50;;;;;;4977824;28;20794;-78
2022/11/30 14:50:01;;;;;;;1.50;1.50;;;8.50;85.20;;;;;;4978351;28;20454;-78
2022/11/30 14:52:50;;;;;;;1.47;1.47;;;8.40;85.60;;;;;;4978523;28;20473;-77
2022/11/30 14:55:28;;;;;;;1.70;1.70;;;8.50;85.50;;;;;;4978256;28;20437;-76
2022/11/30 14:58:06;;;;;;;2.00;2.00;;;8.50;85.40;;;;;;4978281;28;20775;-77
2022/11/30 15:00:37;;;;;;;1.60;1.60;;;8.60;85.00;;;;;;4978863;28;20513;-77
2022/11/30 15:03:05;;;;;;;1.90;1.90;;;8.60;85.20;;;;;;4978524;28;20438;-78
2022/11/30 15:05:32;;;;;;;1.37;1.37;;;8.60;85.40;;;;;;4978126;28;20509;-78
2022/11/30 15:07:59;;;;;;;1.93;1.93;;;8.60;85.60;;;;;;4978248;28;20446;-78
2022/11/30 15:10:30;;;;;;;1.40;1.40;;;8.60;85.60;;;;;;4978068;28;20454;-78
2022/11/30 15:13:00;;;;;;;1.40;1.40;;;8.70;85.40;;;;;;4978506;28;20437;-77
2022/11/30 15:15:27;;;;;;;1.67;1.67;;;8.70;85.20;;;;;;4977829;28;20449;-77
2022/11/30 15:17:56;;;;;;;1.60;1.60;;;8.70;85.10;;;;;;4977954;28;21008;-76
2022/11/30 15:20:29;;;;;;;1.60;1.60;;;8.70;85.20;;;;;;4977308;28;20445;-77
2022/11/30 15:23:00;;;;;;;1.57;1.57;;;8.80;85.10;;;;;;4978047;28;20865;-78
2022/11/30 15:25:33;;;;;;;1.40;1.40;;;8.70;85.20;;;;;;4978100;28;20485;-77
2022/11/30 15:28:03;;;;;;;1.40;1.40;;;8.70;85.40;;;;;;4977538;28;20916;-77
2022/11/30 15:30:30;;;;;;;1.60;1.60;;;8.40;85.50;;;;;;4977571;28;20501;-76
2022/11/30 15:32:57;;;;;;;1.50;1.50;;;8.40;86.10;;;;;;4977604;28;20450;-77
2022/11/30 15:35:26;;;;;;;1.53;1.53;;;8.40;85.90;;;;;;4977412;28;20454;-77
2022/11/30 15:37:54;;;;;;;1.50;1.50;;;8.30;86.10;;;;;;4977602;28;20638;-76
2022/11/30 15:40:32;;;;;;;1.40;1.40;;;8.40;86.00;;;;;;4977209;28;20938;-77
2022/11/30 15:43:01;;;;;;;1.50;1.50;;;8.30;86.50;;;;;;4977346;28;20434;-77
2022/11/30 15:45:30;;;;;;;1.40;1.37;;;8.30;86.20;;;;;;4977262;28;20497;-75
2022/11/30 15:47:59;;;;;;;1.60;1.60;;;8.40;86.30;;;;;;4977205;28;20450;-76
2022/11/30 15:50:37;;;;;;;1.30;1.30;;;8.30;86.30;;;;;;4977526;28;20525;-77
2022/11/30 15:53:19;;;;;;;1.70;1.70;;;8.30;86.20;;;;;;4977002;28;20441;-76
2022/11/30 15:55:47;;;;;;;1.30;1.30;;;8.10;86.40;;;;;;4976794;28;20813;-77
2022/11/30 15:58:27;;;;;;;1.60;1.60;;;7.90;87.40;;;;;;4976872;28;20458;-77
2022/11/30 16:01:06;;;;;;;1.13;1.13;;;8.00;87.20;;;;;;4976567;28;20478;-77
2022/11/30 16:03:33;;;;;;;1.70;1.70;;;7.90;87.20;;;;;;4976564;28;20497;-77
2022/11/30 16:06:03;;;;;;;1.57;1.57;;;7.90;87.20;;;;;;4976850;28;20497;-77
2022/11/30 16:08:31;;;;;;;1.13;1.13;;;7.90;87.20;;;;;;4976200;28;20486;-78
2022/11/30 16:10:57;;;;;;;1.43;1.43;;;7.90;87.50;;;;;;4976387;28;20470;-77
2022/11/30 16:13:30;;;;;;;1.67;1.67;;;8.00;87.30;;;;;;4976411;28;20446;-77
2022/11/30 16:15:59;;;;;;;1.70;1.70;;;8.00;87.10;;;;;;4977852;28;20439;-76
2022/11/30 16:18:28;;;;;;;1.30;1.30;;;8.00;87.40;;;;;;4976329;28;20457;-76
2022/11/30 16:20:57;;;;;;;1.30;1.30;;;8.00;87.20;;;;;;4976110;28;20473;-76
2022/11/30 16:23:24;;;;;;;1.40;1.40;;;8.10;87.40;;;;;;4976141;28;20447;-76
2022/11/30 16:25:52;;;;;;;1.63;1.63;;;8.20;87.10;;;;;;4976130;28;20532;-77
2022/11/30 16:28:20;;;;;;;1.60;1.60;;;8.20;87.00;;;;;;4976202;28;20449;-77
2022/11/30 16:30:48;;;;;;;1.60;1.60;;;8.30;87.00;;;;;;4974942;28;20845;-78
2022/11/30 16:33:17;;;;;;;1.47;1.47;;;8.30;86.80;;;;;;4975845;28;20453;-78
2022/11/30 16:35:51;;;;;;;1.80;1.80;;;8.30;86.50;;;;;;4975907;28;20446;-78
2022/11/30 16:38:18;;;;;;;1.30;1.30;;;8.30;86.40;;;;;;4975940;28;20562;-78
2022/11/30 16:40:45;;;;;;;1.40;1.40;;;8.20;86.20;;;;;;4975464;28;21033;-76
2022/11/30 16:55:53;;;;;;;1.40;1.40;;;7.80;86.90;;;;;;4975877;28;20526;-67
2022/11/30 16:58:20;;;;;;;1.10;1.10;;;7.80;86.50;;;;;;4975115;28;20461;-69
2022/11/30 17:00:47;;;;;;;1.03;1.03;;;7.60;86.50;;;;;;4975481;28;20458;-70
2022/11/30 17:03:20;;;;;;;1.13;1.13;;;7.70;87.20;;;;;;4975349;28;20488;-70
2022/11/30 17:05:47;;;;;;;1.23;1.23;;;7.90;86.70;;;;;;4975313;28;20473;-69
2022/11/30 17:08:14;;;;;;;1.20;1.20;;;7.90;86.40;;;;;;4998367;23;20502;-72
2022/11/30 17:10:41;;;;;;;1.20;1.20;;;8.00;86.70;;;;;;4975245;28;20452;-72
2022/11/30 17:13:13;;;;;;;1.40;1.40;;;8.10;86.60;;;;;;4975199;28;20533;-72
2022/11/30 17:15:40;;;;;;;1.10;1.10;;;8.20;86.40;;;;;;4975219;28;20445;-72
2022/11/30 17:18:06;;;;;;;1.40;1.40;;;8.20;86.30;;;;;;4975030;28;20470;-72
2022/11/30 17:20:35;;;;;;;1.20;1.20;;;8.30;86.00;;;;;;4975072;28;20449;-73
2022/11/30 17:23:02;;;;;;;1.20;1.20;;;8.30;85.80;;;;;;4975061;28;20449;-72
2022/11/30 17:25:29;;;;;;;1.23;1.23;;;8.30;85.90;;;;;;4974669;28;20478;-72
2022/11/30 17:27:55;;;;;;;1.50;1.50;;;8.30;86.20;;;;;;4974820;28;20529;-73
2022/11/30 17:30:23;;;;;;;1.40;1.40;;;8.30;85.80;;;;;;4974945;28;20446;-73
2022/11/30 17:32:50;;;;;;;1.47;1.47;;;8.20;86.00;;;;;;4974842;28;20466;-73